Terminal Aerodrome Forecast
Issued by NWS Upton, NY

Home | Current Version | Previous Version | Text Only | Print | Product List | Glossary On
Versions: 1 2 3 4 5 6 7 8 9 10 11 12 13 14 15 16 17 18 19 20 21 22 23 24 25 26 27 28 29 30 31 32 33 34 35 36 37 38 39 40 41 42 43
000
FTUS41 KOKX 300829 AAA
TAFISP
TAF AMD
KISP 300829Z 3008/0106 VRB05KT P6SM SCT070
     FM301000 03008KT P6SM BKN060
     FM301300 06011KT P6SM BKN060
     FM301500 09011KT P6SM BKN060
     FM301700 12011KT P6SM FEW025 BKN040
     FM010000 10010KT P6SM SCT015 BKN030
     FM010200 10011KT P6SM FEW008 BKN015
     FM010400 11011KT P6SM FEW003 OVC008=

USA.gov is the U.S. government's official web portal to all federal, state and local government web resources and services.